sensor_id;sensor_type;location;lat;lon;timestamp;temperature;humidity
42245;DHT22;27912;51.828;5.688;2022-10-29T00:01:53;14.20;99.90
42245;DHT22;27912;51.828;5.688;2022-10-29T00:04:19;14.10;99.90
42245;DHT22;27912;51.828;5.688;2022-10-29T00:06:47;14.10;99.90
42245;DHT22;27912;51.828;5.688;2022-10-29T00:09:12;14.10;99.90
42245;DHT22;27912;51.828;5.688;2022-10-29T00:11:38;14.10;99.90
42245;DHT22;27912;51.828;5.688;2022-10-29T00:14:04;14.00;99.90
42245;DHT22;27912;51.828;5.688;2022-10-29T00:16:36;14.00;99.90
42245;DHT22;27912;51.828;5.688;2022-10-29T00:19:02;14.10;99.90
42245;DHT22;27912;51.828;5.688;2022-10-29T00:21:28;14.10;99.90
42245;DHT22;27912;51.828;5.688;2022-10-29T00:23:56;14.00;99.90
42245;DHT22;27912;51.828;5.688;2022-10-29T00:26:22;14.00;99.90
42245;DHT22;27912;51.828;5.688;2022-10-29T00:28:51;14.00;99.90
42245;DHT22;27912;51.828;5.688;2022-10-29T00:31:17;13.90;99.90
42245;DHT22;27912;51.828;5.688;2022-10-29T00:33:44;13.80;99.90
42245;DHT22;27912;51.828;5.688;2022-10-29T00:36:15;13.70;99.90
42245;DHT22;27912;51.828;5.688;2022-10-29T00:38:41;13.70;99.90
42245;DHT22;27912;51.828;5.688;2022-10-29T00:41:09;13.60;99.90
42245;DHT22;27912;51.828;5.688;2022-10-29T00:43:36;13.60;99.90
42245;DHT22;27912;51.828;5.688;2022-10-29T00:46:15;13.60;99.90
42245;DHT22;27912;51.828;5.688;2022-10-29T00:48:47;13.60;99.90
42245;DHT22;27912;51.828;5.688;2022-10-29T00:51:14;13.50;99.90
42245;DHT22;27912;51.828;5.688;2022-10-29T00:53:44;13.50;99.90
42245;DHT22;27912;51.828;5.688;2022-10-29T00:56:10;13.50;99.90
42245;DHT22;27912;51.828;5.688;2022-10-29T00:58:37;13.50;99.90
42245;DHT22;27912;51.828;5.688;2022-10-29T01:01:03;13.50;99.90
42245;DHT22;27912;51.828;5.688;2022-10-29T01:03:28;13.50;99.90
42245;DHT22;27912;51.828;5.688;2022-10-29T01:05:54;13.40;99.90
42245;DHT22;27912;51.828;5.688;2022-10-29T01:08:20;13.40;99.90
42245;DHT22;27912;51.828;5.688;2022-10-29T01:11:22;13.40;99.90
42245;DHT22;27912;51.828;5.688;2022-10-29T01:22:34;13.30;99.90
42245;DHT22;27912;51.828;5.688;2022-10-29T01:30:56;13.00;99.90
42245;DHT22;27912;51.828;5.688;2022-10-29T01:34:00;13.00;99.90
42245;DHT22;27912;51.828;5.688;2022-10-29T01:42:12;13.00;99.90
42245;DHT22;27912;51.828;5.688;2022-10-29T01:44:47;13.00;99.90
42245;DHT22;27912;51.828;5.688;2022-10-29T01:47:18;13.00;99.90
42245;DHT22;27912;51.828;5.688;2022-10-29T01:49:50;13.00;99.90
42245;DHT22;27912;51.828;5.688;2022-10-29T01:52:20;13.00;99.90
42245;DHT22;27912;51.828;5.688;2022-10-29T01:54:46;13.10;99.90
42245;DHT22;27912;51.828;5.688;2022-10-29T01:57:41;13.10;99.90
42245;DHT22;27912;51.828;5.688;2022-10-29T02:00:15;13.10;99.90
42245;DHT22;27912;51.828;5.688;2022-10-29T02:05:47;13.10;99.90
42245;DHT22;27912;51.828;5.688;2022-10-29T02:08:28;13.00;99.90
42245;DHT22;27912;51.828;5.688;2022-10-29T02:11:16;13.00;99.90
42245;DHT22;27912;51.828;5.688;2022-10-29T02:13:49;13.00;99.90
42245;DHT22;27912;51.828;5.688;2022-10-29T02:16:16;13.00;99.90
42245;DHT22;27912;51.828;5.688;2022-10-29T02:18:44;13.00;99.90
42245;DHT22;27912;51.828;5.688;2022-10-29T02:21:14;13.00;99.90
42245;DHT22;27912;51.828;5.688;2022-10-29T02:23:39;13.00;99.90
42245;DHT22;27912;51.828;5.688;2022-10-29T02:26:05;13.00;99.90
42245;DHT22;27912;51.828;5.688;2022-10-29T02:28:30;13.00;99.90
42245;DHT22;27912;51.828;5.688;2022-10-29T02:30:56;13.00;99.90
42245;DHT22;27912;51.828;5.688;2022-10-29T02:33:22;13.00;99.90
42245;DHT22;27912;51.828;5.688;2022-10-29T02:35:48;13.00;99.90
42245;DHT22;27912;51.828;5.688;2022-10-29T02:38:13;13.00;99.90
42245;DHT22;27912;51.828;5.688;2022-10-29T02:40:39;13.00;99.90
42245;DHT22;27912;51.828;5.688;2022-10-29T02:43:04;13.00;99.90
42245;DHT22;27912;51.828;5.688;2022-10-29T02:45:30;13.00;99.90
42245;DHT22;27912;51.828;5.688;2022-10-29T02:47:55;13.00;99.90
42245;DHT22;27912;51.828;5.688;2022-10-29T02:50:21;13.00;99.90
42245;DHT22;27912;51.828;5.688;2022-10-29T02:52:46;13.00;99.90
42245;DHT22;27912;51.828;5.688;2022-10-29T02:55:12;12.90;99.90
42245;DHT22;27912;51.828;5.688;2022-10-29T02:57:37;12.90;99.90
42245;DHT22;27912;51.828;5.688;2022-10-29T03:00:04;12.90;99.90
42245;DHT22;27912;51.828;5.688;2022-10-29T03:02:30;12.90;99.90
42245;DHT22;27912;51.828;5.688;2022-10-29T03:04:55;12.90;99.90
42245;DHT22;27912;51.828;5.688;2022-10-29T03:07:21;12.90;99.90
42245;DHT22;27912;51.828;5.688;2022-10-29T03:09:46;12.90;99.90
42245;DHT22;27912;51.828;5.688;2022-10-29T03:12:12;12.90;99.90
42245;DHT22;27912;51.828;5.688;2022-10-29T03:14:37;12.90;99.90
42245;DHT22;27912;51.828;5.688;2022-10-29T03:17:03;12.90;99.90
42245;DHT22;27912;51.828;5.688;2022-10-29T03:19:29;13.00;99.90
42245;DHT22;27912;51.828;5.688;2022-10-29T03:21:54;13.00;99.90
42245;DHT22;27912;51.828;5.688;2022-10-29T03:24:20;12.90;99.90
42245;DHT22;27912;51.828;5.688;2022-10-29T03:26:45;12.90;99.90
42245;DHT22;27912;51.828;5.688;2022-10-29T03:29:11;12.90;99.90
42245;DHT22;27912;51.828;5.688;2022-10-29T03:31:36;12.90;99.90
42245;DHT22;27912;51.828;5.688;2022-10-29T03:34:02;12.90;99.90
42245;DHT22;27912;51.828;5.688;2022-10-29T03:36:27;13.00;99.90
42245;DHT22;27912;51.828;5.688;2022-10-29T03:38:53;13.00;99.90
42245;DHT22;27912;51.828;5.688;2022-10-29T03:41:18;13.10;99.90
42245;DHT22;27912;51.828;5.688;2022-10-29T03:43:44;13.00;99.90
42245;DHT22;27912;51.828;5.688;2022-10-29T03:46:09;13.00;99.90
42245;DHT22;27912;51.828;5.688;2022-10-29T03:48:35;13.00;99.90
42245;DHT22;27912;51.828;5.688;2022-10-29T03:51:03;13.10;99.90
42245;DHT22;27912;51.828;5.688;2022-10-29T03:53:33;13.10;99.90
42245;DHT22;27912;51.828;5.688;2022-10-29T03:55:59;13.10;99.90
42245;DHT22;27912;51.828;5.688;2022-10-29T03:58:25;13.20;99.90
42245;DHT22;27912;51.828;5.688;2022-10-29T04:01:02;13.10;99.90
42245;DHT22;27912;51.828;5.688;2022-10-29T04:03:29;13.20;99.90
42245;DHT22;27912;51.828;5.688;2022-10-29T04:05:56;13.20;99.90
42245;DHT22;27912;51.828;5.688;2022-10-29T04:08:21;13.20;99.90
42245;DHT22;27912;51.828;5.688;2022-10-29T04:10:48;13.20;99.90
42245;DHT22;27912;51.828;5.688;2022-10-29T04:13:15;13.20;99.90
42245;DHT22;27912;51.828;5.688;2022-10-29T04:15:41;13.20;99.90
42245;DHT22;27912;51.828;5.688;2022-10-29T04:18:06;13.20;99.90
42245;DHT22;27912;51.828;5.688;2022-10-29T04:20:33;13.30;99.90
42245;DHT22;27912;51.828;5.688;2022-10-29T04:22:58;13.30;99.90
42245;DHT22;27912;51.828;5.688;2022-10-29T04:25:24;13.30;99.90
42245;DHT22;27912;51.828;5.688;2022-10-29T04:27:50;13.30;99.90
42245;DHT22;27912;51.828;5.688;2022-10-29T04:30:17;13.30;99.90
42245;DHT22;27912;51.828;5.688;2022-10-29T04:32:43;13.30;99.90
42245;DHT22;27912;51.828;5.688;2022-10-29T04:35:08;13.30;99.90
42245;DHT22;27912;51.828;5.688;2022-10-29T04:37:34;13.30;99.90
42245;DHT22;27912;51.828;5.688;2022-10-29T04:39:59;13.30;99.90
42245;DHT22;27912;51.828;5.688;2022-10-29T04:42:25;13.30;99.90
42245;DHT22;27912;51.828;5.688;2022-10-29T04:44:50;13.30;99.90
42245;DHT22;27912;51.828;5.688;2022-10-29T04:47:16;13.20;99.90
42245;DHT22;27912;51.828;5.688;2022-10-29T04:49:42;13.20;99.90
42245;DHT22;27912;51.828;5.688;2022-10-29T04:52:07;13.10;99.90
42245;DHT22;27912;51.828;5.688;2022-10-29T04:54:33;13.10;99.90
42245;DHT22;27912;51.828;5.688;2022-10-29T04:56:58;13.10;99.90
42245;DHT22;27912;51.828;5.688;2022-10-29T04:59:24;13.10;99.90
42245;DHT22;27912;51.828;5.688;2022-10-29T05:01:49;13.10;99.90
42245;DHT22;27912;51.828;5.688;2022-10-29T05:04:15;13.10;99.90
42245;DHT22;27912;51.828;5.688;2022-10-29T05:06:40;13.10;99.90
42245;DHT22;27912;51.828;5.688;2022-10-29T05:09:06;13.10;99.90
42245;DHT22;27912;51.828;5.688;2022-10-29T05:11:31;13.10;99.90
42245;DHT22;27912;51.828;5.688;2022-10-29T05:13:57;13.00;99.90
42245;DHT22;27912;51.828;5.688;2022-10-29T05:16:23;13.00;99.90
42245;DHT22;27912;51.828;5.688;2022-10-29T05:18:48;13.00;99.90
42245;DHT22;27912;51.828;5.688;2022-10-29T05:21:14;12.90;99.90
42245;DHT22;27912;51.828;5.688;2022-10-29T05:23:39;12.90;99.90
42245;DHT22;27912;51.828;5.688;2022-10-29T05:26:05;12.90;99.90
42245;DHT22;27912;51.828;5.688;2022-10-29T05:28:31;12.80;99.90
42245;DHT22;27912;51.828;5.688;2022-10-29T05:30:59;12.80;99.90
42245;DHT22;27912;51.828;5.688;2022-10-29T05:33:25;12.80;99.90
42245;DHT22;27912;51.828;5.688;2022-10-29T05:35:51;12.80;99.90
42245;DHT22;27912;51.828;5.688;2022-10-29T05:38:17;12.70;99.90
42245;DHT22;27912;51.828;5.688;2022-10-29T05:40:43;12.80;99.90
42245;DHT22;27912;51.828;5.688;2022-10-29T05:43:10;12.70;99.90
42245;DHT22;27912;51.828;5.688;2022-10-29T05:45:35;12.80;99.90
42245;DHT22;27912;51.828;5.688;2022-10-29T05:48:02;12.80;99.90
42245;DHT22;27912;51.828;5.688;2022-10-29T05:50:28;12.80;99.90
42245;DHT22;27912;51.828;5.688;2022-10-29T05:52:59;12.80;99.90
42245;DHT22;27912;51.828;5.688;2022-10-29T05:55:25;12.80;99.90
42245;DHT22;27912;51.828;5.688;2022-10-29T05:57:58;12.80;99.90
42245;DHT22;27912;51.828;5.688;2022-10-29T06:00:25;12.90;99.90
42245;DHT22;27912;51.828;5.688;2022-10-29T06:02:51;12.90;99.90
42245;DHT22;27912;51.828;5.688;2022-10-29T06:05:17;12.90;99.90
42245;DHT22;27912;51.828;5.688;2022-10-29T06:07:42;12.90;99.90
42245;DHT22;27912;51.828;5.688;2022-10-29T06:10:08;13.00;99.90
42245;DHT22;27912;51.828;5.688;2022-10-29T06:12:34;13.00;99.90
42245;DHT22;27912;51.828;5.688;2022-10-29T06:14:59;13.10;99.90
42245;DHT22;27912;51.828;5.688;2022-10-29T06:17:25;13.00;99.90
42245;DHT22;27912;51.828;5.688;2022-10-29T06:19:51;13.10;99.90
42245;DHT22;27912;51.828;5.688;2022-10-29T06:22:17;13.20;99.90
42245;DHT22;27912;51.828;5.688;2022-10-29T06:24:42;13.20;99.90
42245;DHT22;27912;51.828;5.688;2022-10-29T06:27:08;13.30;99.90
42245;DHT22;27912;51.828;5.688;2022-10-29T06:29:33;13.30;99.90
42245;DHT22;27912;51.828;5.688;2022-10-29T06:31:59;13.40;99.90
42245;DHT22;27912;51.828;5.688;2022-10-29T06:34:24;13.40;99.90
42245;DHT22;27912;51.828;5.688;2022-10-29T06:36:50;13.40;99.90
42245;DHT22;27912;51.828;5.688;2022-10-29T06:39:15;13.50;99.90
42245;DHT22;27912;51.828;5.688;2022-10-29T06:41:41;13.60;99.90
42245;DHT22;27912;51.828;5.688;2022-10-29T06:44:06;13.70;99.90
42245;DHT22;27912;51.828;5.688;2022-10-29T06:46:32;13.70;99.90
42245;DHT22;27912;51.828;5.688;2022-10-29T06:49:00;13.70;99.90
42245;DHT22;27912;51.828;5.688;2022-10-29T06:51:27;13.80;99.90
42245;DHT22;27912;51.828;5.688;2022-10-29T06:53:52;13.80;99.90
42245;DHT22;27912;51.828;5.688;2022-10-29T06:56:19;13.90;99.90
42245;DHT22;27912;51.828;5.688;2022-10-29T06:58:45;13.90;99.90
42245;DHT22;27912;51.828;5.688;2022-10-29T07:01:10;13.90;99.90
42245;DHT22;27912;51.828;5.688;2022-10-29T07:03:36;13.90;99.90
42245;DHT22;27912;51.828;5.688;2022-10-29T07:06:01;13.90;99.90
42245;DHT22;27912;51.828;5.688;2022-10-29T07:08:27;14.00;99.90
42245;DHT22;27912;51.828;5.688;2022-10-29T07:10:53;14.00;99.90
42245;DHT22;27912;51.828;5.688;2022-10-29T07:13:19;14.10;99.90
42245;DHT22;27912;51.828;5.688;2022-10-29T07:15:45;14.20;99.90
42245;DHT22;27912;51.828;5.688;2022-10-29T07:18:11;14.20;99.90
42245;DHT22;27912;51.828;5.688;2022-10-29T07:20:39;14.30;99.90
42245;DHT22;27912;51.828;5.688;2022-10-29T07:23:05;14.40;99.90
42245;DHT22;27912;51.828;5.688;2022-10-29T07:25:32;14.50;99.90
42245;DHT22;27912;51.828;5.688;2022-10-29T07:28:06;14.50;99.90
42245;DHT22;27912;51.828;5.688;2022-10-29T07:30:32;14.60;99.90
42245;DHT22;27912;51.828;5.688;2022-10-29T07:32:58;14.60;99.90
42245;DHT22;27912;51.828;5.688;2022-10-29T07:35:24;14.60;99.90
42245;DHT22;27912;51.828;5.688;2022-10-29T07:37:49;14.60;99.90
42245;DHT22;27912;51.828;5.688;2022-10-29T07:40:15;14.70;99.90
42245;DHT22;27912;51.828;5.688;2022-10-29T07:42:41;14.70;99.90
42245;DHT22;27912;51.828;5.688;2022-10-29T07:45:06;14.80;99.90
42245;DHT22;27912;51.828;5.688;2022-10-29T07:47:32;14.90;99.90
42245;DHT22;27912;51.828;5.688;2022-10-29T07:49:58;15.00;99.90
42245;DHT22;27912;51.828;5.688;2022-10-29T07:52:23;15.00;99.90
42245;DHT22;27912;51.828;5.688;2022-10-29T07:54:49;15.10;99.90
42245;DHT22;27912;51.828;5.688;2022-10-29T07:57:14;15.10;99.90
42245;DHT22;27912;51.828;5.688;2022-10-29T07:59:40;15.20;99.90
42245;DHT22;27912;51.828;5.688;2022-10-29T08:02:09;15.20;99.90
42245;DHT22;27912;51.828;5.688;2022-10-29T08:04:35;15.20;99.90
42245;DHT22;27912;51.828;5.688;2022-10-29T08:07:00;15.30;99.90
42245;DHT22;27912;51.828;5.688;2022-10-29T08:09:26;15.30;99.90
42245;DHT22;27912;51.828;5.688;2022-10-29T08:11:51;15.30;99.90
42245;DHT22;27912;51.828;5.688;2022-10-29T08:14:17;15.40;99.90
42245;DHT22;27912;51.828;5.688;2022-10-29T08:16:42;15.50;99.90
42245;DHT22;27912;51.828;5.688;2022-10-29T08:19:08;15.60;99.90
42245;DHT22;27912;51.828;5.688;2022-10-29T08:21:35;15.60;99.90
42245;DHT22;27912;51.828;5.688;2022-10-29T08:24:00;15.70;99.90
42245;DHT22;27912;51.828;5.688;2022-10-29T08:26:26;15.80;99.90
42245;DHT22;27912;51.828;5.688;2022-10-29T08:28:51;15.90;99.90
42245;DHT22;27912;51.828;5.688;2022-10-29T08:31:17;16.10;99.90
42245;DHT22;27912;51.828;5.688;2022-10-29T08:33:43;16.20;99.90
42245;DHT22;27912;51.828;5.688;2022-10-29T08:36:11;16.30;99.90
42245;DHT22;27912;51.828;5.688;2022-10-29T08:38:37;16.40;99.90
42245;DHT22;27912;51.828;5.688;2022-10-29T08:44:45;16.70;99.90
42245;DHT22;27912;51.828;5.688;2022-10-29T08:49:41;16.80;99.90
42245;DHT22;27912;51.828;5.688;2022-10-29T08:52:22;16.80;99.90
42245;DHT22;27912;51.828;5.688;2022-10-29T08:55:12;16.80;99.90
42245;DHT22;27912;51.828;5.688;2022-10-29T08:57:43;16.90;99.90
42245;DHT22;27912;51.828;5.688;2022-10-29T09:00:18;16.90;99.90
42245;DHT22;27912;51.828;5.688;2022-10-29T09:02:44;17.00;99.90
42245;DHT22;27912;51.828;5.688;2022-10-29T09:05:17;17.00;99.90
42245;DHT22;27912;51.828;5.688;2022-10-29T09:13:28;17.20;99.90
42245;DHT22;27912;51.828;5.688;2022-10-29T09:24:47;17.30;99.90
42245;DHT22;27912;51.828;5.688;2022-10-29T09:30:20;17.30;99.90
42245;DHT22;27912;51.828;5.688;2022-10-29T09:32:59;17.40;99.90
42245;DHT22;27912;51.828;5.688;2022-10-29T09:35:44;17.40;99.90
42245;DHT22;27912;51.828;5.688;2022-10-29T09:38:18;17.50;99.90
42245;DHT22;27912;51.828;5.688;2022-10-29T09:40:44;17.50;99.90
42245;DHT22;27912;51.828;5.688;2022-10-29T09:51:59;17.70;99.90
42245;DHT22;27912;51.828;5.688;2022-10-29T09:54:28;17.80;99.90
42245;DHT22;27912;51.828;5.688;2022-10-29T09:56:55;17.70;99.90
42245;DHT22;27912;51.828;5.688;2022-10-29T09:59:43;17.70;99.90
42245;DHT22;27912;51.828;5.688;2022-10-29T10:02:42;17.80;99.90
42245;DHT22;27912;51.828;5.688;2022-10-29T10:07:36;17.90;99.90
42245;DHT22;27912;51.828;5.688;2022-10-29T10:10:05;17.80;99.90
42245;DHT22;27912;51.828;5.688;2022-10-29T10:18:02;17.90;99.90
42245;DHT22;27912;51.828;5.688;2022-10-29T10:20:33;18.00;99.90
42245;DHT22;27912;51.828;5.688;2022-10-29T10:22:59;18.00;99.90
42245;DHT22;27912;51.828;5.688;2022-10-29T10:25:34;18.10;99.90
42245;DHT22;27912;51.828;5.688;2022-10-29T10:33:35;18.30;99.90
42245;DHT22;27912;51.828;5.688;2022-10-29T10:36:06;18.40;99.90
42245;DHT22;27912;51.828;5.688;2022-10-29T10:38:43;18.40;99.90
42245;DHT22;27912;51.828;5.688;2022-10-29T10:41:11;18.50;99.90
42245;DHT22;27912;51.828;5.688;2022-10-29T10:43:41;18.50;99.90
42245;DHT22;27912;51.828;5.688;2022-10-29T10:46:23;18.50;99.90
42245;DHT22;27912;51.828;5.688;2022-10-29T10:49:35;18.70;99.90
42245;DHT22;27912;51.828;5.688;2022-10-29T10:52:13;18.90;99.90
42245;DHT22;27912;51.828;5.688;2022-10-29T10:57:33;19.30;99.90
42245;DHT22;27912;51.828;5.688;2022-10-29T11:02:41;19.70;99.90
42245;DHT22;27912;51.828;5.688;2022-10-29T11:05:18;20.00;99.90
42245;DHT22;27912;51.828;5.688;2022-10-29T11:07:59;20.20;99.90
42245;DHT22;27912;51.828;5.688;2022-10-29T11:10:42;20.40;99.90
42245;DHT22;27912;51.828;5.688;2022-10-29T11:13:15;20.50;99.90
42245;DHT22;27912;51.828;5.688;2022-10-29T11:15:51;20.60;99.90
42245;DHT22;27912;51.828;5.688;2022-10-29T11:21:04;21.10;99.90
42245;DHT22;27912;51.828;5.688;2022-10-29T11:26:44;21.50;99.90
42245;DHT22;27912;51.828;5.688;2022-10-29T11:34:56;21.50;99.90
42245;DHT22;27912;51.828;5.688;2022-10-29T11:40:19;21.30;99.90
42245;DHT22;27912;51.828;5.688;2022-10-29T11:42:46;21.20;99.90
42245;DHT22;27912;51.828;5.688;2022-10-29T11:45:26;21.10;99.90
42245;DHT22;27912;51.828;5.688;2022-10-29T11:50:57;21.00;99.90
42245;DHT22;27912;51.828;5.688;2022-10-29T11:53:56;21.00;99.90
42245;DHT22;27912;51.828;5.688;2022-10-29T11:56:32;21.00;99.90
42245;DHT22;27912;51.828;5.688;2022-10-29T12:04:57;21.30;99.90
42245;DHT22;27912;51.828;5.688;2022-10-29T12:10:44;21.50;99.90
42245;DHT22;27912;51.828;5.688;2022-10-29T12:18:51;21.90;99.90
42245;DHT22;27912;51.828;5.688;2022-10-29T12:26:41;22.30;99.90
42245;DHT22;27912;51.828;5.688;2022-10-29T12:29:23;22.30;99.90
42245;DHT22;27912;51.828;5.688;2022-10-29T12:32:36;22.50;99.90
42245;DHT22;27912;51.828;5.688;2022-10-29T12:34:57;22.60;99.90
42245;DHT22;27912;51.828;5.688;2022-10-29T12:37:39;22.80;99.90
42245;DHT22;27912;51.828;5.688;2022-10-29T12:40:19;22.80;99.90
42245;DHT22;27912;51.828;5.688;2022-10-29T12:42:47;22.90;99.90
42245;DHT22;27912;51.828;5.688;2022-10-29T12:45:18;22.90;99.90
42245;DHT22;27912;51.828;5.688;2022-10-29T12:51:00;22.90;99.90
42245;DHT22;27912;51.828;5.688;2022-10-29T12:56:06;23.00;99.90
42245;DHT22;27912;51.828;5.688;2022-10-29T12:58:53;23.10;99.90
42245;DHT22;27912;51.828;5.688;2022-10-29T13:09:25;23.30;99.90
42245;DHT22;27912;51.828;5.688;2022-10-29T13:11:59;23.30;99.90
42245;DHT22;27912;51.828;5.688;2022-10-29T13:14:32;23.50;99.90
42245;DHT22;27912;51.828;5.688;2022-10-29T13:17:02;23.60;99.90
42245;DHT22;27912;51.828;5.688;2022-10-29T13:19:41;23.80;99.90
42245;DHT22;27912;51.828;5.688;2022-10-29T13:24:40;24.00;99.90
42245;DHT22;27912;51.828;5.688;2022-10-29T13:29:50;24.10;99.90
42245;DHT22;27912;51.828;5.688;2022-10-29T13:32:38;24.10;99.90
42245;DHT22;27912;51.828;5.688;2022-10-29T13:38:10;24.20;99.90
42245;DHT22;27912;51.828;5.688;2022-10-29T13:40:41;24.20;99.90
42245;DHT22;27912;51.828;5.688;2022-10-29T13:43:15;24.10;99.90
42245;DHT22;27912;51.828;5.688;2022-10-29T13:45:45;24.00;99.90
42245;DHT22;27912;51.828;5.688;2022-10-29T13:48:45;23.90;99.90
42245;DHT22;27912;51.828;5.688;2022-10-29T13:51:15;23.80;99.90
42245;DHT22;27912;51.828;5.688;2022-10-29T13:53:53;23.60;99.90
42245;DHT22;27912;51.828;5.688;2022-10-29T13:56:44;23.60;99.90
42245;DHT22;27912;51.828;5.688;2022-10-29T13:59:18;23.50;99.90
42245;DHT22;27912;51.828;5.688;2022-10-29T14:01:54;23.30;99.90
42245;DHT22;27912;51.828;5.688;2022-10-29T14:04:29;23.20;99.90
42245;DHT22;27912;51.828;5.688;2022-10-29T14:06:57;23.10;99.90
42245;DHT22;27912;51.828;5.688;2022-10-29T14:09:44;23.00;99.90
42245;DHT22;27912;51.828;5.688;2022-10-29T14:12:14;22.90;99.90
42245;DHT22;27912;51.828;5.688;2022-10-29T14:17:21;22.60;99.90
42245;DHT22;27912;51.828;5.688;2022-10-29T14:19:50;22.50;99.90
42245;DHT22;27912;51.828;5.688;2022-10-29T14:24:46;22.40;99.90
42245;DHT22;27912;51.828;5.688;2022-10-29T14:27:12;22.30;99.90
42245;DHT22;27912;51.828;5.688;2022-10-29T14:29:41;22.30;99.90
42245;DHT22;27912;51.828;5.688;2022-10-29T14:32:17;22.30;99.90
42245;DHT22;27912;51.828;5.688;2022-10-29T14:34:47;22.20;99.90
42245;DHT22;27912;51.828;5.688;2022-10-29T14:37:27;22.20;99.90
42245;DHT22;27912;51.828;5.688;2022-10-29T14:39:56;22.20;99.90
42245;DHT22;27912;51.828;5.688;2022-10-29T14:42:31;22.10;99.90
42245;DHT22;27912;51.828;5.688;2022-10-29T14:45:02;22.10;99.90
42245;DHT22;27912;51.828;5.688;2022-10-29T14:47:36;22.00;99.90
42245;DHT22;27912;51.828;5.688;2022-10-29T14:50:04;22.00;99.90
42245;DHT22;27912;51.828;5.688;2022-10-29T14:55:01;21.90;99.90
42245;DHT22;27912;51.828;5.688;2022-10-29T14:57:30;21.80;99.90
42245;DHT22;27912;51.828;5.688;2022-10-29T15:00:00;21.80;99.90
42245;DHT22;27912;51.828;5.688;2022-10-29T15:02:32;21.70;99.90
42245;DHT22;27912;51.828;5.688;2022-10-29T15:04:59;21.70;99.90
42245;DHT22;27912;51.828;5.688;2022-10-29T15:07:33;21.70;99.90
42245;DHT22;27912;51.828;5.688;2022-10-29T15:10:19;21.60;99.90
42245;DHT22;27912;51.828;5.688;2022-10-29T15:12:45;21.60;99.90
42245;DHT22;27912;51.828;5.688;2022-10-29T15:20:22;21.40;99.90
42245;DHT22;27912;51.828;5.688;2022-10-29T15:22:53;21.30;99.90
42245;DHT22;27912;51.828;5.688;2022-10-29T15:25:31;21.30;99.90
42245;DHT22;27912;51.828;5.688;2022-10-29T15:27:58;21.20;99.90
42245;DHT22;27912;51.828;5.688;2022-10-29T15:30:35;21.10;99.90
42245;DHT22;27912;51.828;5.688;2022-10-29T15:33:04;21.10;99.90
42245;DHT22;27912;51.828;5.688;2022-10-29T15:35:33;21.00;99.90
42245;DHT22;27912;51.828;5.688;2022-10-29T15:38:00;20.90;99.90
42245;DHT22;27912;51.828;5.688;2022-10-29T15:40:26;20.80;99.90
42245;DHT22;27912;51.828;5.688;2022-10-29T15:42:52;20.80;99.90
42245;DHT22;27912;51.828;5.688;2022-10-29T15:45:27;20.60;99.90
42245;DHT22;27912;51.828;5.688;2022-10-29T15:48:26;20.60;99.90
42245;DHT22;27912;51.828;5.688;2022-10-29T15:50:44;20.50;99.90
42245;DHT22;27912;51.828;5.688;2022-10-29T15:53:14;20.30;99.90
42245;DHT22;27912;51.828;5.688;2022-10-29T15:55:40;20.30;99.90
42245;DHT22;27912;51.828;5.688;2022-10-29T15:58:10;20.20;99.90
42245;DHT22;27912;51.828;5.688;2022-10-29T16:00:36;20.00;99.90
42245;DHT22;27912;51.828;5.688;2022-10-29T16:03:19;20.00;99.90
42245;DHT22;27912;51.828;5.688;2022-10-29T16:06:03;19.90;99.90
42245;DHT22;27912;51.828;5.688;2022-10-29T16:08:33;19.90;99.90
42245;DHT22;27912;51.828;5.688;2022-10-29T16:11:02;19.80;99.90
42245;DHT22;27912;51.828;5.688;2022-10-29T16:13:31;19.80;99.90
42245;DHT22;27912;51.828;5.688;2022-10-29T16:15:57;19.80;99.90
42245;DHT22;27912;51.828;5.688;2022-10-29T16:18:22;19.70;99.90
42245;DHT22;27912;51.828;5.688;2022-10-29T16:20:48;19.70;99.90
42245;DHT22;27912;51.828;5.688;2022-10-29T16:23:16;19.70;99.90
42245;DHT22;27912;51.828;5.688;2022-10-29T16:25:41;19.60;99.90
42245;DHT22;27912;51.828;5.688;2022-10-29T16:28:07;19.50;99.90
42245;DHT22;27912;51.828;5.688;2022-10-29T16:30:33;19.50;99.90
42245;DHT22;27912;51.828;5.688;2022-10-29T16:33:00;19.50;99.90
42245;DHT22;27912;51.828;5.688;2022-10-29T16:35:26;19.50;99.90
42245;DHT22;27912;51.828;5.688;2022-10-29T16:37:53;19.40;99.90
42245;DHT22;27912;51.828;5.688;2022-10-29T16:40:20;19.40;99.90
42245;DHT22;27912;51.828;5.688;2022-10-29T16:42:47;19.40;99.90
42245;DHT22;27912;51.828;5.688;2022-10-29T16:45:19;19.40;99.90
42245;DHT22;27912;51.828;5.688;2022-10-29T16:47:45;19.40;99.90
42245;DHT22;27912;51.828;5.688;2022-10-29T16:50:15;19.30;99.90
42245;DHT22;27912;51.828;5.688;2022-10-29T16:52:41;19.30;99.90
42245;DHT22;27912;51.828;5.688;2022-10-29T16:55:07;19.20;99.90
42245;DHT22;27912;51.828;5.688;2022-10-29T16:57:33;19.10;99.90
42245;DHT22;27912;51.828;5.688;2022-10-29T16:59:58;19.10;99.90
42245;DHT22;27912;51.828;5.688;2022-10-29T17:02:24;19.00;99.90
42245;DHT22;27912;51.828;5.688;2022-10-29T17:04:49;19.00;99.90
42245;DHT22;27912;51.828;5.688;2022-10-29T17:07:15;19.10;99.90
42245;DHT22;27912;51.828;5.688;2022-10-29T17:09:41;19.00;99.90
42245;DHT22;27912;51.828;5.688;2022-10-29T17:12:07;19.00;99.90
42245;DHT22;27912;51.828;5.688;2022-10-29T17:14:32;19.00;99.90
42245;DHT22;27912;51.828;5.688;2022-10-29T17:16:58;19.00;99.90
42245;DHT22;27912;51.828;5.688;2022-10-29T17:19:26;19.00;99.90
42245;DHT22;27912;51.828;5.688;2022-10-29T17:21:51;19.00;99.90
42245;DHT22;27912;51.828;5.688;2022-10-29T17:24:17;19.00;99.90
42245;DHT22;27912;51.828;5.688;2022-10-29T17:26:43;18.90;99.90
42245;DHT22;27912;51.828;5.688;2022-10-29T17:29:08;19.00;99.90
42245;DHT22;27912;51.828;5.688;2022-10-29T17:31:34;19.00;99.90
42245;DHT22;27912;51.828;5.688;2022-10-29T17:33:59;18.90;99.90
42245;DHT22;27912;51.828;5.688;2022-10-29T17:36:25;18.90;99.90
42245;DHT22;27912;51.828;5.688;2022-10-29T17:38:50;18.90;99.90
42245;DHT22;27912;51.828;5.688;2022-10-29T17:41:16;18.90;99.90
42245;DHT22;27912;51.828;5.688;2022-10-29T17:43:41;18.80;99.90
42245;DHT22;27912;51.828;5.688;2022-10-29T17:46:07;18.80;99.90
42245;DHT22;27912;51.828;5.688;2022-10-29T17:48:32;18.70;99.90
42245;DHT22;27912;51.828;5.688;2022-10-29T17:51:00;18.70;99.90
42245;DHT22;27912;51.828;5.688;2022-10-29T17:53:27;18.60;99.90
42245;DHT22;27912;51.828;5.688;2022-10-29T17:55:59;18.60;99.90
42245;DHT22;27912;51.828;5.688;2022-10-29T17:58:25;18.50;99.90
42245;DHT22;27912;51.828;5.688;2022-10-29T18:00:51;18.50;99.90
42245;DHT22;27912;51.828;5.688;2022-10-29T18:03:16;18.40;99.90
42245;DHT22;27912;51.828;5.688;2022-10-29T18:05:42;18.40;99.90
42245;DHT22;27912;51.828;5.688;2022-10-29T18:08:08;18.30;99.90
42245;DHT22;27912;51.828;5.688;2022-10-29T18:10:34;18.30;99.90